sensor_id;sensor_type;location;lat;lon;timestamp;P1;durP1;ratioP1;P2;durP2;ratioP2
10493;SDS011;5294;49.410;8.698;2023-02-11T00:01:35;41.60;;;36.07;;
10493;SDS011;5294;49.410;8.698;2023-02-11T00:04:06;40.10;;;34.63;;
10493;SDS011;5294;49.410;8.698;2023-02-11T00:06:32;38.80;;;33.90;;
10493;SDS011;5294;49.410;8.698;2023-02-11T00:08:58;39.20;;;34.87;;
10493;SDS011;5294;49.410;8.698;2023-02-11T00:11:27;40.60;;;36.10;;
10493;SDS011;5294;49.410;8.698;2023-02-11T00:13:54;41.63;;;36.00;;
10493;SDS011;5294;49.410;8.698;2023-02-11T00:16:21;37.57;;;33.57;;
10493;SDS011;5294;49.410;8.698;2023-02-11T00:18:47;38.63;;;34.43;;
10493;SDS011;5294;49.410;8.698;2023-02-11T00:21:18;41.73;;;35.53;;
10493;SDS011;5294;49.410;8.698;2023-02-11T00:23:44;39.87;;;35.60;;
10493;SDS011;5294;49.410;8.698;2023-02-11T00:26:15;39.53;;;34.90;;
10493;SDS011;5294;49.410;8.698;2023-02-11T00:28:41;38.67;;;34.03;;
10493;SDS011;5294;49.410;8.698;2023-02-11T00:31:07;38.33;;;33.33;;
10493;SDS011;5294;49.410;8.698;2023-02-11T00:33:33;38.43;;;33.90;;
10493;SDS011;5294;49.410;8.698;2023-02-11T00:36:07;38.00;;;34.00;;
10493;SDS011;5294;49.410;8.698;2023-02-11T00:38:35;39.47;;;35.17;;
10493;SDS011;5294;49.410;8.698;2023-02-11T00:41:01;38.23;;;34.13;;
10493;SDS011;5294;49.410;8.698;2023-02-11T00:43:27;41.13;;;35.73;;
10493;SDS011;5294;49.410;8.698;2023-02-11T00:45:55;38.50;;;33.63;;
10493;SDS011;5294;49.410;8.698;2023-02-11T00:48:24;39.87;;;35.43;;
10493;SDS011;5294;49.410;8.698;2023-02-11T00:50:50;39.47;;;35.20;;
10493;SDS011;5294;49.410;8.698;2023-02-11T00:53:15;37.93;;;33.67;;
10493;SDS011;5294;49.410;8.698;2023-02-11T00:55:41;39.03;;;34.83;;
10493;SDS011;5294;49.410;8.698;2023-02-11T00:58:07;38.67;;;33.83;;
10493;SDS011;5294;49.410;8.698;2023-02-11T01:00:33;42.23;;;35.27;;
10493;SDS011;5294;49.410;8.698;2023-02-11T01:02:59;38.47;;;34.30;;
10493;SDS011;5294;49.410;8.698;2023-02-11T01:05:25;39.27;;;34.17;;
10493;SDS011;5294;49.410;8.698;2023-02-11T01:07:53;38.43;;;33.87;;
10493;SDS011;5294;49.410;8.698;2023-02-11T01:10:22;39.80;;;35.40;;
10493;SDS011;5294;49.410;8.698;2023-02-11T01:12:48;38.00;;;33.73;;
10493;SDS011;5294;49.410;8.698;2023-02-11T01:15:15;38.50;;;34.50;;
10493;SDS011;5294;49.410;8.698;2023-02-11T01:17:43;40.10;;;35.70;;
10493;SDS011;5294;49.410;8.698;2023-02-11T01:20:15;38.20;;;34.10;;
10493;SDS011;5294;49.410;8.698;2023-02-11T01:22:43;38.27;;;34.17;;
10493;SDS011;5294;49.410;8.698;2023-02-11T01:25:09;38.40;;;34.27;;
10493;SDS011;5294;49.410;8.698;2023-02-11T01:27:38;37.97;;;33.87;;
10493;SDS011;5294;49.410;8.698;2023-02-11T01:30:05;38.40;;;33.87;;
10493;SDS011;5294;49.410;8.698;2023-02-11T01:32:34;39.57;;;34.47;;
10493;SDS011;5294;49.410;8.698;2023-02-11T01:35:02;38.47;;;34.27;;
10493;SDS011;5294;49.410;8.698;2023-02-11T01:37:28;40.23;;;35.83;;
10493;SDS011;5294;49.410;8.698;2023-02-11T01:39:56;41.00;;;35.10;;
10493;SDS011;5294;49.410;8.698;2023-02-11T01:42:22;39.07;;;34.90;;
10493;SDS011;5294;49.410;8.698;2023-02-11T01:44:49;38.33;;;34.43;;
10493;SDS011;5294;49.410;8.698;2023-02-11T01:47:20;40.47;;;34.40;;
10493;SDS011;5294;49.410;8.698;2023-02-11T01:49:46;38.27;;;33.33;;
10493;SDS011;5294;49.410;8.698;2023-02-11T01:52:21;38.37;;;33.90;;
10493;SDS011;5294;49.410;8.698;2023-02-11T01:54:51;37.90;;;33.77;;
10493;SDS011;5294;49.410;8.698;2023-02-11T01:57:37;38.23;;;34.07;;
10493;SDS011;5294;49.410;8.698;2023-02-11T02:00:08;37.87;;;33.87;;
10493;SDS011;5294;49.410;8.698;2023-02-11T02:05:09;37.70;;;32.80;;
10493;SDS011;5294;49.410;8.698;2023-02-11T02:08:14;38.13;;;33.43;;
10493;SDS011;5294;49.410;8.698;2023-02-11T02:10:31;34.70;;;31.00;;
10493;SDS011;5294;49.410;8.698;2023-02-11T02:12:58;36.83;;;32.93;;
10493;SDS011;5294;49.410;8.698;2023-02-11T02:15:34;36.10;;;32.10;;
10493;SDS011;5294;49.410;8.698;2023-02-11T02:18:02;37.57;;;33.67;;
10493;SDS011;5294;49.410;8.698;2023-02-11T02:33:23;36.80;;;32.90;;
10493;SDS011;5294;49.410;8.698;2023-02-11T02:38:20;37.20;;;33.37;;
10493;SDS011;5294;49.410;8.698;2023-02-11T02:40:58;35.57;;;31.87;;
10493;SDS011;5294;49.410;8.698;2023-02-11T02:43:25;35.63;;;31.73;;
10493;SDS011;5294;49.410;8.698;2023-02-11T02:45:51;36.70;;;32.70;;
10493;SDS011;5294;49.410;8.698;2023-02-11T02:50:50;35.47;;;31.67;;
10493;SDS011;5294;49.410;8.698;2023-02-11T02:53:32;37.73;;;32.80;;
10493;SDS011;5294;49.410;8.698;2023-02-11T02:56:15;38.43;;;32.27;;
10493;SDS011;5294;49.410;8.698;2023-02-11T02:59:02;37.70;;;32.90;;
10493;SDS011;5294;49.410;8.698;2023-02-11T03:09:13;36.57;;;32.67;;
10493;SDS011;5294;49.410;8.698;2023-02-11T03:11:41;35.20;;;31.37;;
10493;SDS011;5294;49.410;8.698;2023-02-11T03:14:08;35.53;;;31.67;;
10493;SDS011;5294;49.410;8.698;2023-02-11T03:16:37;36.77;;;32.33;;
10493;SDS011;5294;49.410;8.698;2023-02-11T03:19:40;36.53;;;32.60;;
10493;SDS011;5294;49.410;8.698;2023-02-11T03:21:58;35.63;;;31.67;;
10493;SDS011;5294;49.410;8.698;2023-02-11T03:24:28;36.50;;;32.40;;
10493;SDS011;5294;49.410;8.698;2023-02-11T03:26:55;34.30;;;30.60;;
10493;SDS011;5294;49.410;8.698;2023-02-11T03:29:36;37.47;;;33.37;;
10493;SDS011;5294;49.410;8.698;2023-02-11T03:32:09;36.27;;;31.60;;
10493;SDS011;5294;49.410;8.698;2023-02-11T03:34:45;36.20;;;31.93;;
10493;SDS011;5294;49.410;8.698;2023-02-11T03:39:47;36.30;;;32.10;;
10493;SDS011;5294;49.410;8.698;2023-02-11T03:42:18;36.23;;;32.30;;
10493;SDS011;5294;49.410;8.698;2023-02-11T03:44:46;34.77;;;31.17;;
10493;SDS011;5294;49.410;8.698;2023-02-11T03:47:14;36.03;;;32.17;;
10493;SDS011;5294;49.410;8.698;2023-02-11T03:49:42;37.53;;;33.57;;
10493;SDS011;5294;49.410;8.698;2023-02-11T03:52:09;37.67;;;32.83;;
10493;SDS011;5294;49.410;8.698;2023-02-11T03:54:39;34.40;;;30.70;;
10493;SDS011;5294;49.410;8.698;2023-02-11T03:57:06;38.00;;;32.97;;
10493;SDS011;5294;49.410;8.698;2023-02-11T03:59:48;33.87;;;30.27;;
10493;SDS011;5294;49.410;8.698;2023-02-11T04:02:14;34.03;;;30.27;;
10493;SDS011;5294;49.410;8.698;2023-02-11T04:04:40;34.47;;;30.53;;
10493;SDS011;5294;49.410;8.698;2023-02-11T04:07:08;36.40;;;30.97;;
10493;SDS011;5294;49.410;8.698;2023-02-11T04:09:37;34.10;;;29.10;;
10493;SDS011;5294;49.410;8.698;2023-02-11T04:12:03;34.53;;;30.03;;
10493;SDS011;5294;49.410;8.698;2023-02-11T04:14:29;33.90;;;30.20;;
10493;SDS011;5294;49.410;8.698;2023-02-11T04:16:55;33.33;;;29.67;;
10493;SDS011;5294;49.410;8.698;2023-02-11T04:19:21;33.13;;;28.80;;
10493;SDS011;5294;49.410;8.698;2023-02-11T04:21:49;35.40;;;29.33;;
10493;SDS011;5294;49.410;8.698;2023-02-11T04:24:15;33.27;;;29.10;;
10493;SDS011;5294;49.410;8.698;2023-02-11T04:26:41;33.77;;;29.60;;
10493;SDS011;5294;49.410;8.698;2023-02-11T04:29:07;30.73;;;27.50;;
10493;SDS011;5294;49.410;8.698;2023-02-11T04:31:36;30.43;;;27.27;;
10493;SDS011;5294;49.410;8.698;2023-02-11T04:34:02;32.00;;;28.63;;
10493;SDS011;5294;49.410;8.698;2023-02-11T04:36:27;32.20;;;28.73;;
10493;SDS011;5294;49.410;8.698;2023-02-11T04:38:53;31.53;;;28.13;;
10493;SDS011;5294;49.410;8.698;2023-02-11T04:41:22;32.50;;;28.60;;
10493;SDS011;5294;49.410;8.698;2023-02-11T04:43:48;32.47;;;28.93;;
10493;SDS011;5294;49.410;8.698;2023-02-11T04:46:16;32.87;;;29.40;;
10493;SDS011;5294;49.410;8.698;2023-02-11T04:48:42;30.70;;;27.67;;
10493;SDS011;5294;49.410;8.698;2023-02-11T04:51:08;31.97;;;28.17;;
10493;SDS011;5294;49.410;8.698;2023-02-11T04:53:34;26.23;;;23.43;;
10493;SDS011;5294;49.410;8.698;2023-02-11T04:56:00;32.13;;;28.43;;
10493;SDS011;5294;49.410;8.698;2023-02-11T04:58:26;30.93;;;27.60;;
10493;SDS011;5294;49.410;8.698;2023-02-11T05:00:54;28.17;;;25.13;;
10493;SDS011;5294;49.410;8.698;2023-02-11T05:03:20;27.07;;;23.27;;
10493;SDS011;5294;49.410;8.698;2023-02-11T05:05:46;27.07;;;23.60;;
10493;SDS011;5294;49.410;8.698;2023-02-11T05:08:12;30.10;;;26.80;;
10493;SDS011;5294;49.410;8.698;2023-02-11T05:10:38;30.90;;;27.53;;
10493;SDS011;5294;49.410;8.698;2023-02-11T05:13:04;29.77;;;26.57;;
10493;SDS011;5294;49.410;8.698;2023-02-11T05:15:30;30.60;;;27.17;;
10493;SDS011;5294;49.410;8.698;2023-02-11T05:17:58;30.30;;;27.00;;
10493;SDS011;5294;49.410;8.698;2023-02-11T05:20:24;32.40;;;28.97;;
10493;SDS011;5294;49.410;8.698;2023-02-11T05:22:50;32.43;;;29.00;;
10493;SDS011;5294;49.410;8.698;2023-02-11T05:25:16;33.23;;;29.43;;
10493;SDS011;5294;49.410;8.698;2023-02-11T05:27:45;32.90;;;29.33;;
10493;SDS011;5294;49.410;8.698;2023-02-11T05:30:11;32.70;;;29.30;;
10493;SDS011;5294;49.410;8.698;2023-02-11T05:32:37;33.93;;;30.37;;
10493;SDS011;5294;49.410;8.698;2023-02-11T05:35:07;34.73;;;31.07;;
10493;SDS011;5294;49.410;8.698;2023-02-11T05:37:34;33.20;;;29.70;;
10493;SDS011;5294;49.410;8.698;2023-02-11T05:40:02;32.77;;;29.37;;
10493;SDS011;5294;49.410;8.698;2023-02-11T05:42:28;32.10;;;28.80;;
10493;SDS011;5294;49.410;8.698;2023-02-11T05:44:54;30.87;;;27.67;;
10493;SDS011;5294;49.410;8.698;2023-02-11T05:47:20;30.20;;;26.90;;
10493;SDS011;5294;49.410;8.698;2023-02-11T05:49:46;31.30;;;28.00;;
10493;SDS011;5294;49.410;8.698;2023-02-11T05:52:12;33.03;;;28.57;;
10493;SDS011;5294;49.410;8.698;2023-02-11T05:54:38;34.07;;;29.53;;
10493;SDS011;5294;49.410;8.698;2023-02-11T05:57:04;33.63;;;30.13;;
10493;SDS011;5294;49.410;8.698;2023-02-11T05:59:30;36.90;;;30.93;;
10493;SDS011;5294;49.410;8.698;2023-02-11T06:01:56;34.27;;;30.37;;
10493;SDS011;5294;49.410;8.698;2023-02-11T06:04:22;34.93;;;31.13;;
10493;SDS011;5294;49.410;8.698;2023-02-11T06:06:48;32.77;;;29.37;;
10493;SDS011;5294;49.410;8.698;2023-02-11T06:09:14;34.23;;;30.63;;
10493;SDS011;5294;49.410;8.698;2023-02-11T06:11:40;33.50;;;30.00;;
10493;SDS011;5294;49.410;8.698;2023-02-11T06:14:06;30.10;;;27.00;;
10493;SDS011;5294;49.410;8.698;2023-02-11T06:16:34;29.50;;;26.40;;
10493;SDS011;5294;49.410;8.698;2023-02-11T06:19:01;30.60;;;26.53;;
10493;SDS011;5294;49.410;8.698;2023-02-11T06:21:26;30.43;;;26.60;;
10493;SDS011;5294;49.410;8.698;2023-02-11T06:23:52;30.90;;;26.60;;
10493;SDS011;5294;49.410;8.698;2023-02-11T06:26:19;33.40;;;28.53;;
10493;SDS011;5294;49.410;8.698;2023-02-11T06:28:46;31.30;;;27.90;;
10493;SDS011;5294;49.410;8.698;2023-02-11T06:31:12;29.27;;;26.17;;
10493;SDS011;5294;49.410;8.698;2023-02-11T06:33:38;30.43;;;27.27;;
10493;SDS011;5294;49.410;8.698;2023-02-11T06:36:11;31.23;;;26.10;;
10493;SDS011;5294;49.410;8.698;2023-02-11T06:38:38;30.73;;;27.43;;
10493;SDS011;5294;49.410;8.698;2023-02-11T06:41:04;31.43;;;26.73;;
10493;SDS011;5294;49.410;8.698;2023-02-11T06:43:30;29.23;;;26.10;;
10493;SDS011;5294;49.410;8.698;2023-02-11T06:45:58;28.23;;;25.30;;
10493;SDS011;5294;49.410;8.698;2023-02-11T06:48:24;30.20;;;26.97;;
10493;SDS011;5294;49.410;8.698;2023-02-11T06:50:50;30.30;;;27.00;;
10493;SDS011;5294;49.410;8.698;2023-02-11T06:53:16;30.23;;;26.97;;
10493;SDS011;5294;49.410;8.698;2023-02-11T06:55:42;29.53;;;26.33;;
10493;SDS011;5294;49.410;8.698;2023-02-11T06:58:08;31.97;;;28.13;;
10493;SDS011;5294;49.410;8.698;2023-02-11T07:00:34;31.37;;;27.87;;
10493;SDS011;5294;49.410;8.698;2023-02-11T07:03:00;29.77;;;26.60;;
10493;SDS011;5294;49.410;8.698;2023-02-11T07:05:26;30.63;;;27.43;;
10493;SDS011;5294;49.410;8.698;2023-02-11T07:07:52;31.77;;;27.57;;
10493;SDS011;5294;49.410;8.698;2023-02-11T07:10:21;29.97;;;26.90;;
10493;SDS011;5294;49.410;8.698;2023-02-11T07:12:47;29.97;;;26.70;;
10493;SDS011;5294;49.410;8.698;2023-02-11T07:15:12;29.93;;;26.83;;
10493;SDS011;5294;49.410;8.698;2023-02-11T07:17:38;30.40;;;26.87;;
10493;SDS011;5294;49.410;8.698;2023-02-11T07:20:07;29.47;;;26.33;;
10493;SDS011;5294;49.410;8.698;2023-02-11T07:22:35;30.57;;;27.27;;
10493;SDS011;5294;49.410;8.698;2023-02-11T07:25:01;31.50;;;28.13;;
10493;SDS011;5294;49.410;8.698;2023-02-11T07:27:28;31.33;;;28.03;;
10493;SDS011;5294;49.410;8.698;2023-02-11T07:29:54;29.10;;;26.00;;
10493;SDS011;5294;49.410;8.698;2023-02-11T07:32:20;30.73;;;27.40;;
10493;SDS011;5294;49.410;8.698;2023-02-11T07:34:48;31.07;;;27.80;;
10493;SDS011;5294;49.410;8.698;2023-02-11T07:37:14;30.10;;;26.97;;
10493;SDS011;5294;49.410;8.698;2023-02-11T07:39:40;30.20;;;27.00;;
10493;SDS011;5294;49.410;8.698;2023-02-11T07:42:06;31.17;;;26.47;;
10493;SDS011;5294;49.410;8.698;2023-02-11T07:44:32;30.47;;;26.57;;
10493;SDS011;5294;49.410;8.698;2023-02-11T07:47:01;30.07;;;26.87;;
10493;SDS011;5294;49.410;8.698;2023-02-11T07:49:29;32.23;;;28.83;;
10493;SDS011;5294;49.410;8.698;2023-02-11T07:51:57;32.00;;;28.10;;
10493;SDS011;5294;49.410;8.698;2023-02-11T07:54:23;29.17;;;25.77;;
10493;SDS011;5294;49.410;8.698;2023-02-11T07:56:49;33.87;;;27.30;;
10493;SDS011;5294;49.410;8.698;2023-02-11T07:59:18;29.77;;;25.80;;
10493;SDS011;5294;49.410;8.698;2023-02-11T08:01:46;32.00;;;27.67;;
10493;SDS011;5294;49.410;8.698;2023-02-11T08:04:15;30.10;;;26.80;;
10493;SDS011;5294;49.410;8.698;2023-02-11T08:06:41;28.33;;;25.33;;
10493;SDS011;5294;49.410;8.698;2023-02-11T08:09:12;29.17;;;25.83;;
10493;SDS011;5294;49.410;8.698;2023-02-11T08:11:39;29.60;;;26.40;;
10493;SDS011;5294;49.410;8.698;2023-02-11T08:14:05;27.83;;;24.83;;
10493;SDS011;5294;49.410;8.698;2023-02-11T08:16:32;31.53;;;27.13;;
10493;SDS011;5294;49.410;8.698;2023-02-11T08:19:04;30.20;;;26.73;;
10493;SDS011;5294;49.410;8.698;2023-02-11T08:21:31;29.80;;;26.60;;
10493;SDS011;5294;49.410;8.698;2023-02-11T08:23:57;29.67;;;26.57;;
10493;SDS011;5294;49.410;8.698;2023-02-11T08:26:24;29.83;;;26.63;;
10493;SDS011;5294;49.410;8.698;2023-02-11T08:28:51;30.57;;;27.13;;
10493;SDS011;5294;49.410;8.698;2023-02-11T08:33:46;27.57;;;24.60;;
10493;SDS011;5294;49.410;8.698;2023-02-11T08:36:14;31.83;;;26.23;;
10493;SDS011;5294;49.410;8.698;2023-02-11T08:38:40;26.50;;;23.43;;
10493;SDS011;5294;49.410;8.698;2023-02-11T08:41:09;30.10;;;25.73;;
10493;SDS011;5294;49.410;8.698;2023-02-11T08:43:35;28.50;;;25.23;;
10493;SDS011;5294;49.410;8.698;2023-02-11T08:46:05;27.17;;;24.30;;
10493;SDS011;5294;49.410;8.698;2023-02-11T08:48:31;26.73;;;23.90;;
10493;SDS011;5294;49.410;8.698;2023-02-11T08:51:04;29.43;;;25.13;;
10493;SDS011;5294;49.410;8.698;2023-02-11T08:53:32;29.57;;;25.93;;
10493;SDS011;5294;49.410;8.698;2023-02-11T08:56:01;28.57;;;25.50;;
10493;SDS011;5294;49.410;8.698;2023-02-11T08:58:27;28.50;;;25.30;;
10493;SDS011;5294;49.410;8.698;2023-02-11T09:00:55;28.17;;;25.17;;
10493;SDS011;5294;49.410;8.698;2023-02-11T09:03:21;30.23;;;27.03;;
10493;SDS011;5294;49.410;8.698;2023-02-11T09:05:48;29.50;;;26.00;;
10493;SDS011;5294;49.410;8.698;2023-02-11T09:08:16;25.43;;;22.73;;
10493;SDS011;5294;49.410;8.698;2023-02-11T09:10:45;26.50;;;23.80;;
10493;SDS011;5294;49.410;8.698;2023-02-11T09:13:11;27.63;;;24.20;;
10493;SDS011;5294;49.410;8.698;2023-02-11T09:15:39;27.40;;;24.53;;
10493;SDS011;5294;49.410;8.698;2023-02-11T09:18:09;25.73;;;23.00;;
10493;SDS011;5294;49.410;8.698;2023-02-11T09:20:35;27.10;;;24.30;;
10493;SDS011;5294;49.410;8.698;2023-02-11T09:23:01;28.60;;;25.00;;
10493;SDS011;5294;49.410;8.698;2023-02-11T09:25:29;30.80;;;25.70;;
10493;SDS011;5294;49.410;8.698;2023-02-11T09:27:57;34.33;;;25.60;;
10493;SDS011;5294;49.410;8.698;2023-02-11T09:30:25;27.50;;;24.53;;
10493;SDS011;5294;49.410;8.698;2023-02-11T09:32:51;28.40;;;25.40;;
10493;SDS011;5294;49.410;8.698;2023-02-11T09:35:17;27.17;;;23.10;;
10493;SDS011;5294;49.410;8.698;2023-02-11T09:37:43;25.47;;;22.80;;
10493;SDS011;5294;49.410;8.698;2023-02-11T09:40:09;27.80;;;24.93;;
10493;SDS011;5294;49.410;8.698;2023-02-11T09:42:45;25.90;;;23.17;;
10493;SDS011;5294;49.410;8.698;2023-02-11T09:45:23;25.57;;;22.83;;
10493;SDS011;5294;49.410;8.698;2023-02-11T09:50:21;25.17;;;22.63;;
10493;SDS011;5294;49.410;8.698;2023-02-11T09:53:10;27.23;;;24.30;;
10493;SDS011;5294;49.410;8.698;2023-02-11T09:55:34;27.47;;;24.40;;
10493;SDS011;5294;49.410;8.698;2023-02-11T09:58:04;26.23;;;23.53;;
10493;SDS011;5294;49.410;8.698;2023-02-11T10:05:55;27.93;;;24.73;;
10493;SDS011;5294;49.410;8.698;2023-02-11T10:10:58;29.73;;;26.60;;
10493;SDS011;5294;49.410;8.698;2023-02-11T10:16:37;29.73;;;26.23;;
10493;SDS011;5294;49.410;8.698;2023-02-11T10:23:41;29.30;;;26.20;;
10493;SDS011;5294;49.410;8.698;2023-02-11T10:26:16;27.87;;;24.97;;
10493;SDS011;5294;49.410;8.698;2023-02-11T10:28:49;30.33;;;26.77;;
10493;SDS011;5294;49.410;8.698;2023-02-11T10:31:23;28.83;;;25.73;;
10493;SDS011;5294;49.410;8.698;2023-02-11T10:33:57;30.60;;;26.33;;
10493;SDS011;5294;49.410;8.698;2023-02-11T10:36:27;29.80;;;26.70;;
10493;SDS011;5294;49.410;8.698;2023-02-11T10:38:57;30.23;;;26.53;;
10493;SDS011;5294;49.410;8.698;2023-02-11T10:41:30;30.43;;;26.60;;
10493;SDS011;5294;49.410;8.698;2023-02-11T10:43:58;30.60;;;26.70;;
10493;SDS011;5294;49.410;8.698;2023-02-11T10:46:25;29.27;;;26.27;;
10493;SDS011;5294;49.410;8.698;2023-02-11T10:48:56;30.20;;;26.93;;
10493;SDS011;5294;49.410;8.698;2023-02-11T10:51:26;30.83;;;27.50;;
10493;SDS011;5294;49.410;8.698;2023-02-11T10:56:25;29.73;;;26.70;;
10493;SDS011;5294;49.410;8.698;2023-02-11T10:59:37;29.40;;;26.40;;
10493;SDS011;5294;49.410;8.698;2023-02-11T11:06:56;28.00;;;25.20;;
10493;SDS011;5294;49.410;8.698;2023-02-11T11:09:27;28.10;;;25.10;;
10493;SDS011;5294;49.410;8.698;2023-02-11T11:11:59;28.57;;;25.67;;
10493;SDS011;5294;49.410;8.698;2023-02-11T11:14:25;28.63;;;25.27;;
10493;SDS011;5294;49.410;8.698;2023-02-11T11:16:53;27.33;;;24.43;;
10493;SDS011;5294;49.410;8.698;2023-02-11T11:19:21;28.13;;;25.13;;
10493;SDS011;5294;49.410;8.698;2023-02-11T11:21:48;28.87;;;25.43;;
10493;SDS011;5294;49.410;8.698;2023-02-11T11:29:23;26.67;;;23.97;;
10493;SDS011;5294;49.410;8.698;2023-02-11T11:31:53;30.00;;;24.90;;
10493;SDS011;5294;49.410;8.698;2023-02-11T11:34:35;26.13;;;23.33;;
10493;SDS011;5294;49.410;8.698;2023-02-11T11:37:35;28.83;;;25.37;;
10493;SDS011;5294;49.410;8.698;2023-02-11T11:42:39;25.77;;;23.07;;
10493;SDS011;5294;49.410;8.698;2023-02-11T11:50:49;28.23;;;24.57;;
10493;SDS011;5294;49.410;8.698;2023-02-11T11:56:02;26.57;;;23.77;;
10493;SDS011;5294;49.410;8.698;2023-02-11T11:58:33;27.63;;;24.83;;
10493;SDS011;5294;49.410;8.698;2023-02-11T12:12:05;26.00;;;23.17;;
10493;SDS011;5294;49.410;8.698;2023-02-11T12:14:48;25.83;;;23.20;;
10493;SDS011;5294;49.410;8.698;2023-02-11T12:25:08;26.10;;;23.40;;
10493;SDS011;5294;49.410;8.698;2023-02-11T12:27:47;27.10;;;24.33;;
10493;SDS011;5294;49.410;8.698;2023-02-11T12:30:59;26.03;;;23.33;;
10493;SDS011;5294;49.410;8.698;2023-02-11T12:33:14;27.20;;;24.30;;
10493;SDS011;5294;49.410;8.698;2023-02-11T12:35:58;28.50;;;25.10;;
10493;SDS011;5294;49.410;8.698;2023-02-11T12:38:49;26.13;;;23.43;;
10493;SDS011;5294;49.410;8.698;2023-02-11T12:41:29;26.77;;;23.90;;
10493;SDS011;5294;49.410;8.698;2023-02-11T12:44:23;28.23;;;25.43;;
10493;SDS011;5294;49.410;8.698;2023-02-11T12:46:59;27.07;;;24.23;;
10493;SDS011;5294;49.410;8.698;2023-02-11T12:49:36;25.80;;;23.13;;
10493;SDS011;5294;49.410;8.698;2023-02-11T12:54:37;25.90;;;23.20;;
10493;SDS011;5294;49.410;8.698;2023-02-11T13:05:07;24.87;;;22.20;;
10493;SDS011;5294;49.410;8.698;2023-02-11T13:07:40;27.07;;;24.07;;
10493;SDS011;5294;49.410;8.698;2023-02-11T13:12:44;26.70;;;23.90;;
10493;SDS011;5294;49.410;8.698;2023-02-11T13:15:37;27.90;;;24.70;;
10493;SDS011;5294;49.410;8.698;2023-02-11T13:18:09;26.80;;;23.93;;
10493;SDS011;5294;49.410;8.698;2023-02-11T13:23:28;26.63;;;23.97;;
10493;SDS011;5294;49.410;8.698;2023-02-11T13:25:55;26.23;;;23.33;;
10493;SDS011;5294;49.410;8.698;2023-02-11T13:28:31;25.13;;;22.63;;
10493;SDS011;5294;49.410;8.698;2023-02-11T13:31:00;26.77;;;23.87;;
10493;SDS011;5294;49.410;8.698;2023-02-11T13:33:34;26.13;;;23.37;;
10493;SDS011;5294;49.410;8.698;2023-02-11T13:38:27;28.90;;;25.70;;
10493;SDS011;5294;49.410;8.698;2023-02-11T13:40:58;26.37;;;23.77;;
10493;SDS011;5294;49.410;8.698;2023-02-11T13:43:26;28.43;;;25.53;;
10493;SDS011;5294;49.410;8.698;2023-02-11T13:45:56;29.57;;;26.33;;
10493;SDS011;5294;49.410;8.698;2023-02-11T13:48:34;28.33;;;25.40;;
10493;SDS011;5294;49.410;8.698;2023-02-11T13:51:02;28.13;;;25.23;;
10493;SDS011;5294;49.410;8.698;2023-02-11T13:53:29;27.50;;;24.73;;
10493;SDS011;5294;49.410;8.698;2023-02-11T13:56:11;30.13;;;26.23;;
10493;SDS011;5294;49.410;8.698;2023-02-11T13:58:48;29.67;;;26.00;;
10493;SDS011;5294;49.410;8.698;2023-02-11T14:04:05;29.70;;;25.47;;
10493;SDS011;5294;49.410;8.698;2023-02-11T14:10:05;31.53;;;28.33;;
10493;SDS011;5294;49.410;8.698;2023-02-11T14:13:12;32.33;;;28.77;;
10493;SDS011;5294;49.410;8.698;2023-02-11T14:15:44;29.40;;;26.37;;
10493;SDS011;5294;49.410;8.698;2023-02-11T14:21:00;30.60;;;27.47;;
10493;SDS011;5294;49.410;8.698;2023-02-11T14:23:34;29.93;;;26.63;;
10493;SDS011;5294;49.410;8.698;2023-02-11T14:31:26;30.10;;;27.00;;
10493;SDS011;5294;49.410;8.698;2023-02-11T14:34:02;29.90;;;26.73;;
10493;SDS011;5294;49.410;8.698;2023-02-11T14:36:44;29.80;;;26.67;;
10493;SDS011;5294;49.410;8.698;2023-02-11T14:39:31;32.40;;;28.53;;
10493;SDS011;5294;49.410;8.698;2023-02-11T14:42:05;30.77;;;27.57;;
10493;SDS011;5294;49.410;8.698;2023-02-11T14:44:33;30.77;;;26.60;;
10493;SDS011;5294;49.410;8.698;2023-02-11T14:46:59;31.27;;;28.07;;
10493;SDS011;5294;49.410;8.698;2023-02-11T14:49:30;30.93;;;27.73;;
10493;SDS011;5294;49.410;8.698;2023-02-11T14:52:03;29.87;;;26.77;;
10493;SDS011;5294;49.410;8.698;2023-02-11T14:54:33;31.93;;;27.20;;
10493;SDS011;5294;49.410;8.698;2023-02-11T14:57:13;29.93;;;26.87;;
10493;SDS011;5294;49.410;8.698;2023-02-11T14:59:52;31.47;;;28.07;;
10493;SDS011;5294;49.410;8.698;2023-02-11T15:02:23;32.13;;;28.37;;
10493;SDS011;5294;49.410;8.698;2023-02-11T15:04:51;32.80;;;29.17;;
10493;SDS011;5294;49.410;8.698;2023-02-11T15:07:19;32.00;;;27.90;;
10493;SDS011;5294;49.410;8.698;2023-02-11T15:09:49;30.80;;;27.57;;
10493;SDS011;5294;49.410;8.698;2023-02-11T15:12:17;28.83;;;25.93;;
10493;SDS011;5294;49.410;8.698;2023-02-11T15:14:47;29.17;;;25.93;;
10493;SDS011;5294;49.410;8.698;2023-02-11T15:17:14;31.67;;;27.97;;
10493;SDS011;5294;49.410;8.698;2023-02-11T15:19:43;31.40;;;28.00;;
10493;SDS011;5294;49.410;8.698;2023-02-11T15:27:35;32.30;;;28.83;;
10493;SDS011;5294;49.410;8.698;2023-02-11T15:30:02;32.03;;;28.70;;
10493;SDS011;5294;49.410;8.698;2023-02-11T15:32:42;30.77;;;27.47;;
10493;SDS011;5294;49.410;8.698;2023-02-11T15:35:11;30.83;;;27.63;;
10493;SDS011;5294;49.410;8.698;2023-02-11T15:37:38;31.80;;;28.30;;
10493;SDS011;5294;49.410;8.698;2023-02-11T15:40:11;29.83;;;26.80;;
10493;SDS011;5294;49.410;8.698;2023-02-11T15:42:39;30.13;;;26.97;;
10493;SDS011;5294;49.410;8.698;2023-02-11T15:45:10;30.63;;;27.13;;
10493;SDS011;5294;49.410;8.698;2023-02-11T15:47:37;30.87;;;26.43;;
10493;SDS011;5294;49.410;8.698;2023-02-11T15:50:03;28.80;;;25.80;;
10493;SDS011;5294;49.410;8.698;2023-02-11T15:52:32;28.13;;;25.13;;
10493;SDS011;5294;49.410;8.698;2023-02-11T15:55:01;29.97;;;26.57;;
10493;SDS011;5294;49.410;8.698;2023-02-11T15:57:29;29.13;;;25.23;;
10493;SDS011;5294;49.410;8.698;2023-02-11T15:59:55;28.00;;;25.00;;
10493;SDS011;5294;49.410;8.698;2023-02-11T16:02:31;29.73;;;26.53;;
10493;SDS011;5294;49.410;8.698;2023-02-11T16:05:06;28.87;;;25.87;;
10493;SDS011;5294;49.410;8.698;2023-02-11T16:07:46;28.67;;;25.57;;
10493;SDS011;5294;49.410;8.698;2023-02-11T16:15:52;28.13;;;24.97;;
10493;SDS011;5294;49.410;8.698;2023-02-11T16:18:37;29.73;;;26.70;;
10493;SDS011;5294;49.410;8.698;2023-02-11T16:21:13;28.57;;;25.47;;
10493;SDS011;5294;49.410;8.698;2023-02-11T16:23:40;28.03;;;24.80;;
10493;SDS011;5294;49.410;8.698;2023-02-11T16:26:52;28.70;;;24.97;;
10493;SDS011;5294;49.410;8.698;2023-02-11T16:29:00;28.47;;;25.20;;
10493;SDS011;5294;49.410;8.698;2023-02-11T16:31:39;29.47;;;24.60;;
10493;SDS011;5294;49.410;8.698;2023-02-11T16:34:18;29.23;;;25.00;;
10493;SDS011;5294;49.410;8.698;2023-02-11T16:36:45;28.67;;;25.57;;
10493;SDS011;5294;49.410;8.698;2023-02-11T16:39:11;29.93;;;25.23;;
10493;SDS011;5294;49.410;8.698;2023-02-11T16:41:40;29.23;;;26.23;;
10493;SDS011;5294;49.410;8.698;2023-02-11T16:44:06;27.40;;;24.70;;
10493;SDS011;5294;49.410;8.698;2023-02-11T16:46:32;27.30;;;23.97;;
10493;SDS011;5294;49.410;8.698;2023-02-11T16:49:03;27.13;;;23.97;;
10493;SDS011;5294;49.410;8.698;2023-02-11T16:51:36;26.70;;;23.87;;
10493;SDS011;5294;49.410;8.698;2023-02-11T16:54:05;26.37;;;23.67;;
10493;SDS011;5294;49.410;8.698;2023-02-11T16:56:31;26.10;;;23.37;;
10493;SDS011;5294;49.410;8.698;2023-02-11T16:58:56;26.43;;;23.50;;
10493;SDS011;5294;49.410;8.698;2023-02-11T17:01:22;25.00;;;22.30;;
10493;SDS011;5294;49.410;8.698;2023-02-11T17:03:51;25.10;;;22.43;;
10493;SDS011;5294;49.410;8.698;2023-02-11T17:06:17;24.53;;;21.93;;